createdAt,value
2023-01-26T00:01:14.486Z,26.95
2023-01-26T00:03:41.739Z,27.83
2023-01-26T00:06:10.353Z,27.98
2023-01-26T00:08:42.032Z,26.67
2023-01-26T00:11:10.693Z,26.40
2023-01-26T00:13:38.073Z,28.25
2023-01-26T00:16:05.221Z,29.55
2023-01-26T00:18:32.000Z,28.52
2023-01-26T00:21:00.338Z,28.45
2023-01-26T00:23:28.706Z,27.55
2023-01-26T00:25:55.823Z,26.38
2023-01-26T00:28:22.640Z,28.17
2023-01-26T00:30:49.537Z,26.90
2023-01-26T00:33:16.679Z,27.00
2023-01-26T00:35:46.202Z,23.50
2023-01-26T00:38:13.754Z,26.92
2023-01-26T00:40:40.707Z,26.35
2023-01-26T00:43:07.947Z,25.10
2023-01-26T00:45:35.716Z,27.38
2023-01-26T00:48:02.575Z,28.13
2023-01-26T00:50:29.569Z,26.83
2023-01-26T00:52:56.630Z,23.27
2023-01-26T00:55:23.377Z,27.10
2023-01-26T00:57:50.486Z,23.60
2023-01-26T01:00:17.788Z,22.27
2023-01-26T01:02:44.825Z,23.58
2023-01-26T01:05:12.174Z,23.75
2023-01-26T01:07:38.895Z,16.42
2023-01-26T01:10:05.735Z,19.95
2023-01-26T01:12:32.446Z,18.13
2023-01-26T01:14:59.242Z,16.23
2023-01-26T01:17:25.930Z,15.65
2023-01-26T01:19:52.652Z,18.30
2023-01-26T01:22:19.408Z,16.65
2023-01-26T01:24:46.088Z,18.08
2023-01-26T01:27:12.916Z,18.60
2023-01-26T01:29:39.702Z,16.83
2023-01-26T01:32:06.537Z,18.63
2023-01-26T01:34:33.256Z,18.90
2023-01-26T01:36:59.942Z,18.85
2023-01-26T01:39:26.662Z,20.95
2023-01-26T01:41:53.348Z,23.98
2023-01-26T01:44:22.612Z,23.13
2023-01-26T01:47:06.009Z,22.95
2023-01-26T01:49:38.800Z,21.23
2023-01-26T01:52:08.424Z,22.75
2023-01-26T01:54:43.316Z,19.30
2023-01-26T01:57:17.691Z,21.55
2023-01-26T02:02:15.044Z,22.38
2023-01-26T02:04:42.471Z,21.60
2023-01-26T02:07:11.452Z,22.73
2023-01-26T02:10:00.318Z,22.45
2023-01-26T02:12:31.009Z,26.85
2023-01-26T02:14:58.587Z,25.13
2023-01-26T02:17:25.423Z,29.25
2023-01-26T02:20:06.834Z,24.95
2023-01-26T02:22:59.611Z,27.70
2023-01-26T02:25:52.781Z,28.02
2023-01-26T02:28:22.986Z,27.20
2023-01-26T02:30:50.463Z,23.33
2023-01-26T02:33:21.951Z,25.15
2023-01-26T02:35:48.930Z,25.90
2023-01-26T02:38:16.583Z,26.85
2023-01-26T02:40:54.325Z,25.60
2023-01-26T02:43:24.048Z,20.77
2023-01-26T02:45:50.771Z,23.30
2023-01-26T02:48:37.517Z,24.88
2023-01-26T02:51:04.777Z,26.70
2023-01-26T02:53:32.071Z,26.50
2023-01-26T02:55:58.938Z,27.67
2023-01-26T02:58:25.772Z,27.17
2023-01-26T03:00:52.611Z,27.70
2023-01-26T03:03:41.427Z,28.60
2023-01-26T03:06:12.977Z,28.33
2023-01-26T03:08:39.899Z,30.35
2023-01-26T03:11:08.461Z,27.40
2023-01-26T03:13:36.083Z,27.55
2023-01-26T03:16:07.219Z,29.67
2023-01-26T03:18:55.707Z,23.92
2023-01-26T03:21:41.514Z,30.23
2023-01-26T03:24:31.728Z,24.60
2023-01-26T03:27:17.155Z,24.55
2023-01-26T03:29:44.167Z,22.42
2023-01-26T03:32:11.160Z,26.23
2023-01-26T03:34:37.930Z,25.58
2023-01-26T03:37:05.409Z,22.02
2023-01-26T03:39:50.672Z,21.83
2023-01-26T03:42:36.064Z,22.27
2023-01-26T03:45:21.623Z,24.75
2023-01-26T03:48:07.224Z,24.80
2023-01-26T03:50:52.710Z,22.83
2023-01-26T03:53:42.268Z,22.88
2023-01-26T03:56:23.256Z,20.73
2023-01-26T03:58:55.297Z,21.02
2023-01-26T04:01:33.043Z,22.48
2023-01-26T04:04:18.372Z,20.38
2023-01-26T04:07:05.314Z,19.63
2023-01-26T04:09:33.037Z,21.48
2023-01-26T04:12:00.265Z,19.75
2023-01-26T04:14:50.118Z,20.83
2023-01-26T04:17:37.291Z,20.50
2023-01-26T04:20:24.536Z,22.98
2023-01-26T04:22:51.343Z,19.98
2023-01-26T04:25:20.876Z,22.20
2023-01-26T04:27:47.582Z,19.60
2023-01-26T04:30:15.748Z,19.00
2023-01-26T04:32:42.729Z,22.20
2023-01-26T04:35:10.240Z,22.15
2023-01-26T04:37:37.687Z,19.25
2023-01-26T04:40:05.907Z,21.77
2023-01-26T04:42:32.647Z,18.73
2023-01-26T04:44:59.393Z,18.42
2023-01-26T04:47:28.900Z,18.48
2023-01-26T04:49:56.010Z,20.00
2023-01-26T04:52:22.712Z,18.50
2023-01-26T04:54:49.447Z,17.65
2023-01-26T04:57:16.300Z,18.65
2023-01-26T04:59:43.055Z,19.98
2023-01-26T05:02:10.525Z,16.65
2023-01-26T05:04:37.627Z,17.13
2023-01-26T05:07:04.337Z,15.85
2023-01-26T05:09:31.099Z,17.50
2023-01-26T05:12:17.736Z,18.70
2023-01-26T05:14:44.438Z,17.00
2023-01-26T05:17:11.172Z,18.00
2023-01-26T05:19:37.855Z,18.20
2023-01-26T05:22:04.564Z,19.13
2023-01-26T05:24:31.300Z,18.40
2023-01-26T05:27:17.920Z,19.42
2023-01-26T05:29:44.603Z,20.42
2023-01-26T05:32:11.270Z,21.23
2023-01-26T05:34:38.513Z,19.75
2023-01-26T05:37:05.495Z,20.13
2023-01-26T05:39:32.207Z,19.38
2023-01-26T05:41:58.985Z,18.77
2023-01-26T05:44:25.823Z,18.05
2023-01-26T05:46:52.639Z,22.25
2023-01-26T05:49:19.464Z,24.20
2023-01-26T05:51:46.154Z,22.65
2023-01-26T05:54:12.853Z,22.60
2023-01-26T05:56:39.537Z,21.98
2023-01-26T05:59:06.258Z,21.10
2023-01-26T06:01:32.937Z,19.73
2023-01-26T06:03:59.656Z,19.15
2023-01-26T06:06:26.549Z,21.70
2023-01-26T06:08:53.213Z,20.25
2023-01-26T06:11:19.998Z,21.35
2023-01-26T06:13:46.676Z,21.17
2023-01-26T06:16:13.363Z,20.60
2023-01-26T06:18:40.113Z,22.08
2023-01-26T06:21:06.933Z,22.05
2023-01-26T06:23:33.887Z,20.95
2023-01-26T06:26:01.201Z,20.98
2023-01-26T06:28:28.788Z,20.23
2023-01-26T06:31:06.679Z,20.27
2023-01-26T06:33:34.909Z,22.88
2023-01-26T06:36:06.613Z,19.23
2023-01-26T06:38:33.564Z,18.48
2023-01-26T06:41:06.076Z,20.90
2023-01-26T06:43:34.554Z,19.15
2023-01-26T06:46:02.753Z,19.55
2023-01-26T06:48:32.716Z,19.60
2023-01-26T06:51:40.884Z,17.15
2023-01-26T06:54:11.484Z,17.30
2023-01-26T06:56:39.095Z,15.95
2023-01-26T06:59:05.892Z,13.50
2023-01-26T07:01:43.290Z,13.43
2023-01-26T07:04:10.267Z,15.82
2023-01-26T07:06:37.423Z,14.85
2023-01-26T07:09:04.895Z,15.00
2023-01-26T07:11:32.714Z,14.68
2023-01-26T07:13:59.759Z,15.10
2023-01-26T07:16:26.696Z,14.00
2023-01-26T07:18:54.956Z,18.08
2023-01-26T07:21:23.056Z,15.52
2023-01-26T07:23:51.718Z,14.05
2023-01-26T07:26:18.988Z,15.23
2023-01-26T07:28:45.728Z,13.05
2023-01-26T07:31:12.884Z,16.42
2023-01-26T07:33:39.838Z,17.02
2023-01-26T07:36:06.901Z,15.63
2023-01-26T07:38:34.609Z,15.95
2023-01-26T07:41:10.208Z,15.82
2023-01-26T07:43:38.180Z,16.58
2023-01-26T07:46:05.955Z,15.35
2023-01-26T07:48:34.254Z,15.52
2023-01-26T07:51:03.671Z,14.02
2023-01-26T07:53:33.938Z,16.10
2023-01-26T07:56:14.730Z,17.73
2023-01-26T07:58:41.918Z,17.83
2023-01-26T08:01:13.591Z,15.07
2023-01-26T08:03:41.038Z,15.88
2023-01-26T08:06:11.785Z,14.30
2023-01-26T08:08:42.744Z,11.27
2023-01-26T08:11:10.573Z,10.23
2023-01-26T08:13:37.908Z,12.70
2023-01-26T08:16:12.055Z,11.80
2023-01-26T08:21:06.203Z,14.02
2023-01-26T08:23:32.969Z,10.18
2023-01-26T08:26:08.434Z,10.38
2023-01-26T08:28:35.951Z,10.60
2023-01-26T08:31:19.886Z,12.10
2023-01-26T08:33:50.990Z,7.85
2023-01-26T08:36:21.709Z,10.85
2023-01-26T08:38:49.400Z,10.82
2023-01-26T08:41:16.094Z,12.10
2023-01-26T08:43:42.855Z,11.63
2023-01-26T08:46:09.729Z,12.10
2023-01-26T08:48:37.383Z,10.95
2023-01-26T08:51:05.632Z,10.00
2023-01-26T08:53:34.139Z,8.93
2023-01-26T08:56:06.219Z,12.25
2023-01-26T08:58:33.835Z,10.30
2023-01-26T09:01:08.278Z,9.77
2023-01-26T09:03:35.633Z,9.40
2023-01-26T09:06:04.416Z,10.10
2023-01-26T09:08:31.963Z,12.32
2023-01-26T09:10:59.046Z,13.98
2023-01-26T09:13:26.027Z,12.60
2023-01-26T09:15:52.811Z,13.82
2023-01-26T09:18:19.595Z,12.30
2023-01-26T09:20:46.429Z,12.75
2023-01-26T09:23:13.226Z,9.20
2023-01-26T09:25:40.516Z,9.82
2023-01-26T09:28:07.548Z,10.38
2023-01-26T09:30:34.766Z,14.30
2023-01-26T09:33:04.220Z,14.18
2023-01-26T09:35:31.212Z,11.88
2023-01-26T09:37:57.882Z,13.82
2023-01-26T09:40:54.767Z,7.55
2023-01-26T09:43:41.582Z,7.85
2023-01-26T09:46:44.455Z,8.93
2023-01-26T09:49:49.987Z,8.13
2023-01-26T09:52:47.771Z,10.23
2023-01-26T09:55:19.558Z,8.27
2023-01-26T09:58:04.734Z,7.68
2023-01-26T10:00:35.443Z,7.95
2023-01-26T10:03:16.176Z,8.13
2023-01-26T10:06:21.613Z,9.88
2023-01-26T10:08:49.829Z,9.63
2023-01-26T10:11:20.929Z,10.27
2023-01-26T10:14:16.124Z,11.05
2023-01-26T10:16:47.326Z,10.55
2023-01-26T10:19:21.954Z,7.78
2023-01-26T10:21:51.476Z,6.30
2023-01-26T10:24:22.716Z,6.50
2023-01-26T10:26:52.790Z,7.68
2023-01-26T10:29:20.626Z,8.75
2023-01-26T10:31:47.766Z,7.20
2023-01-26T10:34:24.987Z,8.73
2023-01-26T10:36:58.176Z,7.95
2023-01-26T10:39:24.973Z,9.75
2023-01-26T10:42:03.339Z,10.93
2023-01-26T10:44:38.271Z,9.68
2023-01-26T10:47:18.192Z,9.20
2023-01-26T10:49:45.424Z,9.80
2023-01-26T10:52:24.903Z,9.82
2023-01-26T10:55:12.176Z,11.15
2023-01-26T10:57:41.362Z,9.30
2023-01-26T11:00:24.547Z,10.02
2023-01-26T11:02:53.981Z,9.90
2023-01-26T11:05:25.463Z,11.55
2023-01-26T11:07:58.805Z,8.85
2023-01-26T11:10:37.645Z,9.50
2023-01-26T11:13:18.557Z,9.05
2023-01-26T11:15:52.366Z,8.32
2023-01-26T11:18:42.859Z,8.70
2023-01-26T11:21:39.243Z,9.00
2023-01-26T11:24:27.548Z,10.93
2023-01-26T11:27:42.690Z,10.13
2023-01-26T11:30:53.917Z,7.63
2023-01-26T11:33:59.331Z,8.77
2023-01-26T11:39:22.915Z,8.85
2023-01-26T11:41:58.654Z,8.68
2023-01-26T11:44:29.870Z,8.45
2023-01-26T11:47:17.888Z,10.57
2023-01-26T11:50:18.324Z,10.90
2023-01-26T11:53:30.796Z,13.23
2023-01-26T11:56:19.428Z,12.40
2023-01-26T11:58:56.479Z,14.35
2023-01-26T12:01:31.399Z,12.88
2023-01-26T12:03:58.243Z,15.63
2023-01-26T12:06:28.027Z,13.10
2023-01-26T12:09:10.471Z,15.13
2023-01-26T12:11:51.598Z,13.02
2023-01-26T12:14:45.271Z,14.60
2023-01-26T12:17:32.364Z,14.80
2023-01-26T12:20:17.087Z,14.27
2023-01-26T12:25:36.260Z,14.90
2023-01-26T12:28:12.445Z,15.20
2023-01-26T12:31:13.574Z,16.80
2023-01-26T12:33:40.818Z,15.73
2023-01-26T12:36:39.503Z,14.93
2023-01-26T12:39:13.590Z,16.58
2023-01-26T12:41:52.213Z,14.32
2023-01-26T12:45:02.428Z,15.68
2023-01-26T12:47:56.755Z,15.98
2023-01-26T12:50:26.551Z,13.90
2023-01-26T12:53:16.255Z,13.80
2023-01-26T12:56:04.579Z,13.32
2023-01-26T12:58:42.258Z,13.30
2023-01-26T13:01:12.590Z,14.93
2023-01-26T13:04:08.736Z,12.00
2023-01-26T13:06:35.492Z,14.18
2023-01-26T13:09:24.613Z,12.38
2023-01-26T13:11:51.345Z,13.18
2023-01-26T13:14:24.214Z,13.73
2023-01-26T13:16:51.225Z,16.48
2023-01-26T13:19:44.293Z,16.13
2023-01-26T13:22:26.127Z,14.93
2023-01-26T13:24:55.822Z,13.50
2023-01-26T13:27:57.138Z,13.32
2023-01-26T13:30:24.079Z,15.13
2023-01-26T13:32:52.241Z,15.95
2023-01-26T13:35:23.233Z,12.88
2023-01-26T13:37:59.279Z,12.30
2023-01-26T13:40:33.648Z,10.88
2023-01-26T13:45:41.514Z,11.70
2023-01-26T13:48:16.338Z,12.52
2023-01-26T13:50:46.226Z,10.23
2023-01-26T13:53:39.064Z,14.50
2023-01-26T13:56:18.720Z,12.35
2023-01-26T13:58:45.646Z,11.85
2023-01-26T14:01:14.242Z,12.90
2023-01-26T14:03:40.948Z,12.88
2023-01-26T14:06:22.569Z,13.70
2023-01-26T14:08:56.801Z,14.13
2023-01-26T14:11:26.732Z,13.63
2023-01-26T14:13:56.340Z,12.18
2023-01-26T14:16:32.275Z,12.63
2023-01-26T14:19:14.930Z,15.68
2023-01-26T14:21:53.885Z,13.88
2023-01-26T14:24:26.094Z,12.98
2023-01-26T14:26:52.803Z,14.10
2023-01-26T14:29:23.033Z,13.43
2023-01-26T14:31:52.175Z,12.27
2023-01-26T14:34:22.671Z,15.13
2023-01-26T14:37:05.542Z,12.45
2023-01-26T14:39:32.296Z,12.90
2023-01-26T14:42:00.492Z,13.27
2023-01-26T14:44:27.302Z,13.77
2023-01-26T14:47:08.150Z,14.93
2023-01-26T14:49:49.845Z,14.70
2023-01-26T14:52:29.745Z,14.18
2023-01-26T14:54:59.871Z,16.40
2023-01-26T14:57:28.194Z,14.77
2023-01-26T14:59:58.540Z,13.88
2023-01-26T15:02:37.271Z,15.15
2023-01-26T15:05:21.751Z,13.57
2023-01-26T15:08:17.437Z,13.75
2023-01-26T15:10:55.187Z,15.38
2023-01-26T15:13:30.840Z,13.07
2023-01-26T15:16:04.749Z,12.88
2023-01-26T15:18:33.304Z,13.88
2023-01-26T15:21:05.959Z,15.63
2023-01-26T15:23:37.469Z,14.93
2023-01-26T15:26:17.414Z,15.90
2023-01-26T15:28:44.227Z,16.63
2023-01-26T15:31:30.586Z,15.10
2023-01-26T15:34:03.914Z,14.55
2023-01-26T15:36:51.200Z,13.27
2023-01-26T15:39:21.136Z,14.73
2023-01-26T15:42:14.563Z,13.73
2023-01-26T15:44:42.387Z,15.63
2023-01-26T15:47:11.315Z,18.13
2023-01-26T15:49:38.685Z,15.35
2023-01-26T15:52:16.207Z,14.10
2023-01-26T15:54:43.670Z,14.80
2023-01-26T15:57:13.890Z,17.38
2023-01-26T15:59:41.034Z,15.40
2023-01-26T16:02:22.064Z,14.23
2023-01-26T16:04:48.916Z,14.73
2023-01-26T16:07:18.517Z,15.10
2023-01-26T16:09:45.549Z,16.98
2023-01-26T16:12:30.430Z,15.13
2023-01-26T16:14:58.152Z,14.10
2023-01-26T16:17:24.937Z,17.23
2023-01-26T16:19:51.647Z,14.45
2023-01-26T16:22:18.386Z,17.67
2023-01-26T16:24:45.519Z,16.00
2023-01-26T16:27:12.239Z,15.95
2023-01-26T16:29:38.898Z,16.58
2023-01-26T16:32:26.267Z,16.30
2023-01-26T16:34:52.992Z,17.77
2023-01-26T16:37:19.709Z,13.45
2023-01-26T16:39:46.479Z,14.40
2023-01-26T16:42:18.668Z,15.50
2023-01-26T16:44:46.987Z,20.13
2023-01-26T16:47:13.669Z,15.13
2023-01-26T16:49:40.371Z,15.60
2023-01-26T16:52:08.516Z,13.82
2023-01-26T16:54:35.292Z,16.35
2023-01-26T16:57:02.064Z,16.02
2023-01-26T16:59:28.802Z,16.23
2023-01-26T17:01:55.675Z,16.05
2023-01-26T17:04:22.386Z,14.05
2023-01-26T17:06:49.194Z,16.50
2023-01-26T17:09:16.018Z,15.27
2023-01-26T17:11:43.134Z,13.60
2023-01-26T17:14:11.890Z,14.75
2023-01-26T17:16:39.462Z,20.38
2023-01-26T17:19:08.714Z,15.57
2023-01-26T17:21:35.837Z,15.60
2023-01-26T17:24:02.717Z,17.00
2023-01-26T17:26:29.479Z,19.63
2023-01-26T17:28:56.573Z,16.05
2023-01-26T17:31:25.928Z,18.70
2023-01-26T17:33:54.331Z,16.70
2023-01-26T17:36:21.094Z,19.45
2023-01-26T17:38:49.387Z,18.15
2023-01-26T17:41:17.014Z,18.45
2023-01-26T17:43:44.068Z,17.45
2023-01-26T17:46:21.253Z,16.85
2023-01-26T17:48:49.726Z,20.02
2023-01-26T17:51:19.513Z,16.90
2023-01-26T17:53:49.536Z,18.98
2023-01-26T17:56:19.068Z,17.48
2023-01-26T17:58:55.524Z,17.90
2023-01-26T18:01:24.321Z,18.67
2023-01-26T18:03:51.389Z,17.45
2023-01-26T18:06:18.213Z,17.05
2023-01-26T18:08:45.020Z,17.35
2023-01-26T18:11:14.362Z,18.15
2023-01-26T18:13:41.702Z,16.83
2023-01-26T18:16:10.453Z,18.90
2023-01-26T18:18:37.582Z,17.45
2023-01-26T18:21:19.736Z,17.40
2023-01-26T18:23:48.128Z,16.58
2023-01-26T18:26:16.295Z,17.77
2023-01-26T18:28:44.258Z,17.88
2023-01-26T18:31:16.961Z,18.92
2023-01-26T18:33:44.454Z,18.88
2023-01-26T18:36:13.322Z,19.85
2023-01-26T18:38:44.642Z,20.90
2023-01-26T18:41:12.899Z,17.55
2023-01-26T18:43:40.342Z,19.80
2023-01-26T18:46:07.243Z,17.73
2023-01-26T18:48:35.242Z,19.50
2023-01-26T18:51:02.731Z,18.50
2023-01-26T18:53:29.962Z,18.75
2023-01-26T18:56:11.293Z,20.63
2023-01-26T18:58:39.611Z,19.05
2023-01-26T19:01:09.917Z,21.58
2023-01-26T19:03:47.448Z,18.30
2023-01-26T19:06:19.752Z,19.25
2023-01-26T19:08:48.145Z,19.23
2023-01-26T19:11:15.281Z,18.10
2023-01-26T19:13:43.280Z,18.88
2023-01-26T19:16:10.234Z,18.38
2023-01-26T19:18:37.135Z,16.23
2023-01-26T19:21:04.844Z,20.88
2023-01-26T19:23:32.288Z,19.45
2023-01-26T19:25:59.913Z,18.88
2023-01-26T19:28:26.691Z,20.15
2023-01-26T19:31:02.266Z,19.50
2023-01-26T19:33:29.157Z,18.77
2023-01-26T19:35:56.512Z,19.55
2023-01-26T19:38:24.007Z,18.90
2023-01-26T19:40:52.240Z,18.83
2023-01-26T19:43:20.186Z,20.35
2023-01-26T19:45:53.127Z,17.80
2023-01-26T19:48:27.536Z,19.52
2023-01-26T19:53:33.817Z,19.55
2023-01-26T19:56:08.953Z,19.00
2023-01-26T19:58:36.164Z,21.45
2023-01-26T20:01:06.166Z,17.75
2023-01-26T20:03:32.980Z,19.27
2023-01-26T20:06:00.143Z,18.92
2023-01-26T20:08:29.814Z,17.48
2023-01-26T20:11:06.980Z,17.60
2023-01-26T20:13:34.784Z,20.10
2023-01-26T20:16:03.602Z,19.63
2023-01-26T20:18:30.350Z,18.38
2023-01-26T20:20:58.869Z,22.23
2023-01-26T20:23:27.538Z,19.35
2023-01-26T20:26:09.061Z,22.20
2023-01-26T20:28:37.721Z,19.55
2023-01-26T20:31:05.940Z,19.42
2023-01-26T20:33:33.619Z,21.63
2023-01-26T20:36:00.425Z,18.15
2023-01-26T20:38:27.121Z,17.70
2023-01-26T20:40:53.802Z,22.17
2023-01-26T20:43:20.506Z,18.45
2023-01-26T20:45:47.215Z,21.20
2023-01-26T20:48:14.914Z,19.48
2023-01-26T20:50:41.748Z,16.77
2023-01-26T20:53:08.663Z,17.75
2023-01-26T20:55:35.789Z,19.25
2023-01-26T20:58:02.497Z,17.63
2023-01-26T21:00:29.156Z,18.02
2023-01-26T21:02:55.882Z,19.13
2023-01-26T21:05:22.732Z,19.23
2023-01-26T21:07:49.435Z,18.85
2023-01-26T21:10:16.404Z,19.05
2023-01-26T21:12:43.083Z,18.73
2023-01-26T21:15:10.355Z,16.70
2023-01-26T21:17:36.998Z,18.92
2023-01-26T21:20:04.058Z,20.52
2023-01-26T21:22:31.019Z,17.77
2023-01-26T21:24:57.722Z,18.10
2023-01-26T21:27:24.411Z,20.15
2023-01-26T21:29:51.084Z,22.30
2023-01-26T21:32:17.761Z,19.30
2023-01-26T21:34:44.538Z,19.40
2023-01-26T21:37:11.247Z,19.13
2023-01-26T21:39:37.911Z,19.80
2023-01-26T21:42:04.789Z,19.42
2023-01-26T21:44:33.290Z,21.05
2023-01-26T21:47:03.650Z,19.60
2023-01-26T21:49:30.619Z,18.90
2023-01-26T21:52:15.847Z,21.20
2023-01-26T21:54:42.547Z,20.02
2023-01-26T21:57:30.036Z,19.38
2023-01-26T21:59:57.002Z,20.15
2023-01-26T22:02:24.034Z,18.90
2023-01-26T22:04:51.233Z,20.40
2023-01-26T22:07:17.964Z,20.10
2023-01-26T22:09:44.747Z,19.88
2023-01-26T22:12:11.446Z,20.55
2023-01-26T22:14:38.236Z,19.77
2023-01-26T22:17:04.953Z,18.73
2023-01-26T22:19:31.657Z,18.55
2023-01-26T22:21:58.340Z,19.70
2023-01-26T22:24:25.075Z,19.52
2023-01-26T22:26:51.939Z,20.60
2023-01-26T22:29:18.745Z,22.90
2023-01-26T22:31:45.618Z,20.50
2023-01-26T22:34:12.435Z,22.70
2023-01-26T22:36:40.269Z,22.85
2023-01-26T22:39:07.152Z,21.75
2023-01-26T22:41:34.620Z,21.13
2023-01-26T22:44:01.585Z,22.52
2023-01-26T22:46:30.785Z,20.90
2023-01-26T22:48:59.006Z,19.52
2023-01-26T22:51:30.719Z,20.83
2023-01-26T22:53:58.443Z,21.08
2023-01-26T22:56:26.646Z,21.70
2023-01-26T22:58:58.557Z,21.00
2023-01-26T23:01:32.424Z,20.58
2023-01-26T23:04:00.212Z,20.00
2023-01-26T23:06:27.243Z,19.20
2023-01-26T23:08:54.599Z,19.42
2023-01-26T23:11:24.139Z,19.02
2023-01-26T23:13:52.366Z,19.55
2023-01-26T23:16:19.537Z,21.45
2023-01-26T23:18:46.234Z,20.50
2023-01-26T23:21:13.327Z,21.13
2023-01-26T23:23:41.014Z,22.70
2023-01-26T23:26:08.822Z,19.98
2023-01-26T23:28:37.720Z,21.00
2023-01-26T23:31:04.877Z,19.35
2023-01-26T23:33:33.628Z,18.15
2023-01-26T23:36:00.413Z,21.58
2023-01-26T23:38:28.670Z,18.88
2023-01-26T23:40:55.624Z,19.65
2023-01-26T23:43:23.111Z,20.50
2023-01-26T23:45:50.898Z,18.77
2023-01-26T23:48:18.427Z,20.40
2023-01-26T23:50:45.424Z,20.70
2023-01-26T23:53:12.444Z,22.55
2023-01-26T23:55:43.375Z,21.70
2023-01-26T23:58:11.123Z,19.98
